Time;durP1;ratioP1;P1;durP2;ratioP2;P2;SDS_P1;SDS_P2;PMS_P1;PMS_P2;Temp;Humidity;BMP_temperature;BMP_pressure;BME280_temperature;BME280_humidity;BME280_pressure;Samples;Min_cycle;Max_cycle;Signal;HPM_P1;HPM_P2
2021/09/13 00:00:52;;;;;;;2.90;2.70;;;18.90;99.90;;;;;;4996893;28;20165;-60
2021/09/13 00:03:18;;;;;;;2.70;2.50;;;19.00;99.90;;;;;;4997518;28;20165;-60
2021/09/13 00:05:44;;;;;;;2.83;2.63;;;19.10;99.90;;;;;;4979375;28;20196;-59
2021/09/13 00:08:09;;;;;;;3.37;3.17;;;19.10;99.90;;;;;;4996890;28;20451;-59
2021/09/13 00:10:35;;;;;;;3.00;2.80;;;19.10;99.90;;;;;;4997048;28;20821;-60
2021/09/13 00:13:00;;;;;;;5.10;3.83;;;19.10;99.90;;;;;;4979488;28;20263;-57
2021/09/13 00:15:27;;;;;;;3.30;3.10;;;19.00;99.90;;;;;;5004041;28;20243;-60
2021/09/13 00:17:52;;;;;;;3.10;2.80;;;18.90;99.90;;;;;;5016727;28;20174;-59
2021/09/13 00:20:18;;;;;;;3.30;2.90;;;18.90;99.90;;;;;;4999786;28;20415;-59
2021/09/13 00:22:43;;;;;;;2.90;2.70;;;18.90;99.90;;;;;;4996960;28;20180;-60
2021/09/13 00:25:09;;;;;;;6.20;3.77;;;18.90;99.90;;;;;;4996670;28;20192;-56
2021/09/13 00:27:35;;;;;;;3.53;3.27;;;18.90;99.90;;;;;;4997323;28;20254;-60
2021/09/13 00:30:01;;;;;;;3.20;3.00;;;18.90;99.90;;;;;;4996804;28;20779;-59
2021/09/13 00:32:26;;;;;;;3.90;3.30;;;18.80;99.90;;;;;;4996342;28;20200;-60
2021/09/13 00:34:52;;;;;;;7.50;3.53;;;18.80;99.90;;;;;;4996255;28;20185;-59
2021/09/13 00:37:17;;;;;;;3.70;3.40;;;18.70;99.90;;;;;;4996609;28;20175;-60
2021/09/13 00:39:43;;;;;;;4.10;3.70;;;18.70;99.90;;;;;;4996567;28;20642;-58
2021/09/13 00:42:09;;;;;;;6.07;3.70;;;18.60;99.90;;;;;;4996502;28;20172;-58
2021/09/13 00:44:34;;;;;;;3.43;3.13;;;18.50;99.90;;;;;;4997873;28;20176;-60
2021/09/13 00:47:01;;;;;;;3.87;3.57;;;18.40;99.90;;;;;;5015940;28;20175;-60
2021/09/13 00:49:26;;;;;;;3.90;2.70;;;18.40;99.90;;;;;;5016000;28;20200;-60
2021/09/13 00:51:52;;;;;;;6.10;3.07;;;18.30;99.90;;;;;;5015823;28;20892;-60
2021/09/13 00:54:18;;;;;;;3.40;2.87;;;18.30;99.90;;;;;;5016111;28;20168;-59
2021/09/13 00:56:44;;;;;;;3.30;3.10;;;18.40;99.90;;;;;;5015319;28;20184;-60
2021/09/13 00:59:11;;;;;;;3.37;3.17;;;18.40;99.90;;;;;;4998228;28;20433;-57
2021/09/13 01:01:36;;;;;;;3.40;2.90;;;18.30;99.90;;;;;;5016198;28;20403;-60
2021/09/13 01:04:02;;;;;;;4.03;3.63;;;18.30;99.90;;;;;;5015758;28;20457;-59
2021/09/13 01:06:28;;;;;;;5.20;3.27;;;18.40;99.90;;;;;;4998175;28;20196;-59
2021/09/13 01:08:54;;;;;;;3.90;3.50;;;18.30;99.90;;;;;;5015915;28;20245;-60
2021/09/13 01:11:20;;;;;;;9.87;3.63;;;18.30;99.90;;;;;;5015979;28;20251;-59
2021/09/13 01:13:46;;;;;;;3.63;3.33;;;18.20;99.90;;;;;;5015641;28;20395;-60
2021/09/13 01:16:11;;;;;;;3.53;3.23;;;18.10;99.90;;;;;;5028956;28;20457;-60
2021/09/13 01:18:37;;;;;;;3.87;3.57;;;18.10;99.90;;;;;;5035097;28;20414;-57
2021/09/13 01:21:04;;;;;;;4.30;3.13;;;18.10;99.90;;;;;;5035128;28;20171;-60
2021/09/13 01:23:35;;;;;;;3.17;2.97;;;18.10;99.90;;;;;;5035174;28;20682;-59
2021/09/13 01:26:01;;;;;;;2.93;2.73;;;18.10;99.90;;;;;;5017229;28;20446;-60
2021/09/13 01:28:27;;;;;;;2.97;2.77;;;18.10;99.90;;;;;;5035116;28;20822;-59
2021/09/13 01:30:53;;;;;;;3.77;3.17;;;18.20;99.90;;;;;;5034549;28;20407;-60
2021/09/13 01:33:21;;;;;;;4.57;3.47;;;18.20;99.90;;;;;;5034872;28;20174;-59
2021/09/13 01:35:47;;;;;;;3.80;3.40;;;18.20;99.90;;;;;;5034487;28;20453;-59
2021/09/13 01:38:13;;;;;;;3.67;3.23;;;18.20;99.90;;;;;;5035075;28;20410;-58
2021/09/13 01:40:39;;;;;;;3.17;2.97;;;18.20;99.90;;;;;;5034664;28;20266;-58
2021/09/13 01:43:05;;;;;;;3.53;3.23;;;18.10;99.90;;;;;;5034650;28;20497;-60
2021/09/13 01:45:31;;;;;;;4.20;3.77;;;18.10;99.90;;;;;;5032756;28;20241;-60
2021/09/13 01:47:56;;;;;;;3.50;3.27;;;18.00;99.90;;;;;;5014936;28;20184;-59
2021/09/13 01:50:23;;;;;;;5.00;3.63;;;18.00;99.90;;;;;;5014546;28;20403;-56
2021/09/13 01:52:48;;;;;;;4.07;3.77;;;17.80;99.90;;;;;;5014777;28;20188;-58
2021/09/13 01:55:14;;;;;;;3.33;3.03;;;17.80;99.90;;;;;;5014620;28;20970;-60
2021/09/13 01:57:40;;;;;;;3.57;3.27;;;17.80;99.90;;;;;;5014822;28;20202;-59
2021/09/13 02:00:08;;;;;;;3.80;3.50;;;17.70;99.90;;;;;;5014508;28;20411;-60
2021/09/13 02:02:33;;;;;;;6.40;4.10;;;17.70;99.90;;;;;;5014240;28;20206;-60
2021/09/13 02:04:59;;;;;;;4.27;3.87;;;17.70;99.90;;;;;;5014114;28;20429;-60
2021/09/13 02:07:25;;;;;;;4.70;3.40;;;17.70;99.90;;;;;;5013658;28;20172;-59
2021/09/13 02:09:53;;;;;;;6.43;3.70;;;17.60;99.90;;;;;;5014947;28;20176;-58
2021/09/13 02:12:20;;;;;;;8.43;3.43;;;17.60;99.90;;;;;;5014458;28;20163;-58
2021/09/13 02:14:46;;;;;;;3.57;3.27;;;17.60;99.90;;;;;;5016192;28;20499;-59
2021/09/13 02:17:12;;;;;;;6.53;4.20;;;17.50;99.90;;;;;;5033740;28;20397;-58
2021/09/13 02:19:37;;;;;;;4.63;3.43;;;17.50;99.90;;;;;;5033936;28;20402;-58
2021/09/13 02:22:03;;;;;;;4.83;4.00;;;17.30;99.90;;;;;;5033708;28;20246;-60
2021/09/13 02:24:29;;;;;;;4.10;3.80;;;17.30;99.90;;;;;;5033733;28;20160;-58
2021/09/13 02:26:55;;;;;;;4.00;3.70;;;17.30;99.90;;;;;;5022145;28;20495;-60
2021/09/13 02:29:20;;;;;;;3.40;3.10;;;17.40;99.90;;;;;;4994418;28;20200;-59
2021/09/13 02:31:46;;;;;;;3.43;3.13;;;17.30;99.90;;;;;;4994091;28;20164;-59
2021/09/13 02:34:12;;;;;;;4.13;3.73;;;17.30;99.90;;;;;;4994716;28;20806;-57
2021/09/13 02:36:39;;;;;;;4.63;3.87;;;17.20;99.90;;;;;;4994075;28;20194;-60
2021/09/13 02:39:05;;;;;;;4.00;3.23;;;17.10;99.90;;;;;;4994275;28;20164;-59
2021/09/13 02:41:30;;;;;;;4.73;4.20;;;17.00;99.90;;;;;;4994280;28;20411;-59
2021/09/13 02:43:56;;;;;;;3.93;3.40;;;17.00;99.90;;;;;;4996544;28;20192;-61
2021/09/13 02:46:22;;;;;;;3.60;3.30;;;17.00;99.90;;;;;;5005349;28;20222;-59
2021/09/13 02:48:47;;;;;;;4.47;3.47;;;17.10;99.90;;;;;;4994421;28;20197;-59
2021/09/13 02:51:13;;;;;;;6.53;3.93;;;17.00;99.90;;;;;;5008141;28;20242;-59
2021/09/13 02:53:39;;;;;;;3.80;3.47;;;17.00;99.90;;;;;;5013861;28;20167;-57
2021/09/13 02:56:05;;;;;;;6.17;4.03;;;17.00;99.90;;;;;;5013940;28;20255;-60
2021/09/13 02:58:31;;;;;;;4.80;4.43;;;16.90;99.90;;;;;;5014258;28;20553;-59
2021/09/13 03:00:56;;;;;;;4.03;3.70;;;16.90;99.90;;;;;;5013691;28;20632;-60
2021/09/13 03:03:22;;;;;;;3.80;3.50;;;17.00;99.90;;;;;;4999616;28;20202;-59
2021/09/13 03:05:48;;;;;;;7.33;3.90;;;16.90;99.90;;;;;;4993842;28;20192;-59
2021/09/13 03:08:13;;;;;;;3.50;3.20;;;16.90;99.90;;;;;;4993859;28;20214;-57
2021/09/13 03:10:39;;;;;;;4.13;3.83;;;16.90;99.90;;;;;;4994375;28;20562;-59
2021/09/13 03:13:04;;;;;;;4.00;3.67;;;16.90;99.90;;;;;;4998139;28;20172;-59
2021/09/13 03:15:30;;;;;;;3.90;3.50;;;16.90;99.90;;;;;;5012720;28;20207;-58
2021/09/13 03:17:56;;;;;;;3.73;3.43;;;16.80;99.90;;;;;;5014114;28;20545;-59
2021/09/13 03:20:22;;;;;;;4.60;3.90;;;16.90;99.90;;;;;;5016577;28;20248;-61
2021/09/13 03:22:47;;;;;;;5.03;4.63;;;16.90;99.90;;;;;;5017310;28;20229;-59
2021/09/13 03:25:13;;;;;;;4.00;3.60;;;16.80;99.90;;;;;;5017555;28;20201;-60
2021/09/13 03:27:39;;;;;;;3.60;3.30;;;16.90;99.90;;;;;;5017945;28;20190;-60
2021/09/13 03:30:06;;;;;;;4.13;3.83;;;17.00;99.90;;;;;;5017809;28;20247;-59
2021/09/13 03:32:32;;;;;;;3.80;3.50;;;17.10;99.90;;;;;;5017229;28;20168;-59
2021/09/13 03:34:57;;;;;;;5.50;4.20;;;17.10;99.90;;;;;;5017565;28;20479;-59
2021/09/13 03:37:23;;;;;;;5.10;4.60;;;17.20;99.90;;;;;;5017163;28;20408;-58
2021/09/13 03:39:49;;;;;;;4.67;4.37;;;17.20;99.90;;;;;;5017263;28;20171;-58
2021/09/13 03:42:14;;;;;;;5.10;4.60;;;17.20;99.90;;;;;;5017194;28;20641;-59
2021/09/13 03:44:41;;;;;;;4.47;3.37;;;17.30;99.90;;;;;;5017428;28;20255;-59
2021/09/13 03:47:07;;;;;;;4.13;3.83;;;17.30;99.90;;;;;;5016869;28;20868;-59
2021/09/13 03:49:32;;;;;;;4.77;4.37;;;17.30;99.90;;;;;;5017062;28;20497;-59
2021/09/13 03:51:58;;;;;;;4.17;3.87;;;17.20;99.90;;;;;;5016728;28;20202;-59
2021/09/13 03:54:24;;;;;;;4.20;3.80;;;17.30;99.90;;;;;;5017004;28;20187;-60
2021/09/13 03:56:49;;;;;;;4.47;4.07;;;17.30;99.90;;;;;;5017128;28;20175;-59
2021/09/13 03:59:15;;;;;;;4.70;4.30;;;17.20;99.90;;;;;;5017482;28;20168;-59
2021/09/13 04:01:40;;;;;;;4.50;4.10;;;17.20;99.90;;;;;;5016751;28;20637;-58
2021/09/13 04:04:08;;;;;;;4.93;3.93;;;17.10;99.90;;;;;;5016994;28;20275;-59
2021/09/13 04:11:27;;;;;;;4.03;3.63;;;17.10;99.90;;;;;;5016729;28;20167;-60
2021/09/13 04:13:53;;;;;;;4.83;4.43;;;17.10;99.90;;;;;;5016623;28;20229;-59
2021/09/13 04:16:18;;;;;;;4.30;3.90;;;16.90;99.90;;;;;;5030840;28;20448;-59
2021/09/13 04:18:44;;;;;;;4.60;3.77;;;17.00;99.90;;;;;;5036346;28;20170;-58
2021/09/13 04:21:10;;;;;;;4.13;3.57;;;17.00;99.90;;;;;;5035931;28;20182;-60
2021/09/13 04:23:35;;;;;;;5.13;4.47;;;16.90;99.90;;;;;;5018497;28;20179;-59
2021/09/13 04:26:01;;;;;;;4.20;3.80;;;16.80;99.90;;;;;;4996443;28;20197;-58
2021/09/13 04:28:26;;;;;;;6.50;4.27;;;16.80;99.90;;;;;;4996439;28;20541;-57
2021/09/13 04:30:52;;;;;;;4.47;4.07;;;16.90;99.90;;;;;;4995835;28;20595;-59
2021/09/13 04:33:18;;;;;;;4.83;3.43;;;16.90;99.90;;;;;;4996291;28;20172;-59
2021/09/13 04:35:43;;;;;;;7.00;3.97;;;16.90;99.90;;;;;;4996344;28;20644;-59
2021/09/13 04:38:09;;;;;;;5.00;4.30;;;16.90;99.90;;;;;;4996857;28;20173;-59
2021/09/13 04:40:34;;;;;;;4.63;4.20;;;16.90;99.90;;;;;;4996314;28;20170;-59
2021/09/13 04:43:00;;;;;;;4.33;4.03;;;16.80;99.90;;;;;;4996358;28;20265;-59
2021/09/13 04:45:26;;;;;;;5.03;3.90;;;16.80;99.90;;;;;;5003989;28;20204;-59
2021/09/13 04:47:51;;;;;;;4.63;4.23;;;16.80;99.90;;;;;;5015514;28;20277;-57
2021/09/13 04:50:17;;;;;;;4.43;4.10;;;16.70;99.90;;;;;;5015768;28;20164;-59
2021/09/13 04:52:42;;;;;;;4.80;4.30;;;16.70;99.90;;;;;;5016428;28;20166;-59
2021/09/13 04:55:08;;;;;;;4.50;3.67;;;16.70;99.90;;;;;;5015839;28;20238;-59
2021/09/13 04:57:34;;;;;;;4.47;4.17;;;16.80;99.90;;;;;;5016066;28;20171;-59
2021/09/13 04:59:59;;;;;;;4.73;4.33;;;16.80;99.90;;;;;;5016228;28;20891;-59
2021/09/13 05:02:25;;;;;;;5.00;4.43;;;16.90;99.90;;;;;;5016028;28;20179;-59
2021/09/13 05:04:51;;;;;;;3.80;3.50;;;16.90;99.90;;;;;;5016312;28;20196;-59
2021/09/13 05:07:16;;;;;;;4.30;3.80;;;16.90;99.90;;;;;;5015922;28;20171;-59
2021/09/13 05:09:42;;;;;;;4.60;4.20;;;16.70;99.90;;;;;;5015761;28;20159;-58
2021/09/13 05:12:08;;;;;;;3.93;3.57;;;16.80;99.90;;;;;;5016180;28;20174;-59
2021/09/13 05:14:33;;;;;;;4.73;4.30;;;16.90;99.90;;;;;;5014358;28;20180;-59
2021/09/13 05:16:59;;;;;;;5.40;4.00;;;16.90;99.90;;;;;;5012233;28;20213;-59
2021/09/13 05:19:24;;;;;;;4.90;4.50;;;17.00;99.90;;;;;;5012281;28;20183;-59
2021/09/13 05:21:50;;;;;;;5.03;4.63;;;17.00;99.90;;;;;;5015134;28;20203;-59
2021/09/13 05:24:15;;;;;;;6.10;4.40;;;17.00;99.90;;;;;;5015651;28;20246;-59
2021/09/13 05:26:43;;;;;;;5.90;4.17;;;17.00;99.90;;;;;;5015351;28;20204;-59
2021/09/13 05:29:08;;;;;;;4.90;4.10;;;17.10;99.90;;;;;;5014212;28;20225;-59
2021/09/13 05:31:34;;;;;;;4.90;4.50;;;17.00;99.90;;;;;;5013893;28;20446;-59
2021/09/13 05:33:59;;;;;;;4.57;4.17;;;17.00;99.90;;;;;;5014951;28;20176;-58
2021/09/13 05:36:25;;;;;;;4.70;4.30;;;16.90;99.90;;;;;;5014901;28;20657;-59
2021/09/13 05:38:51;;;;;;;4.67;4.30;;;17.00;99.90;;;;;;5015447;28;20249;-58
2021/09/13 05:41:16;;;;;;;5.07;4.60;;;17.10;99.90;;;;;;5014915;28;20232;-58
2021/09/13 05:43:42;;;;;;;5.13;4.63;;;17.10;99.90;;;;;;5014779;28;20298;-58
2021/09/13 05:46:08;;;;;;;5.40;4.90;;;17.10;99.90;;;;;;5012151;28;20203;-59
2021/09/13 05:48:33;;;;;;;4.37;3.87;;;17.20;99.90;;;;;;5013650;28;20301;-58
2021/09/13 05:50:59;;;;;;;5.30;4.80;;;17.10;99.90;;;;;;5013997;28;20178;-59
2021/09/13 05:53:24;;;;;;;5.90;4.40;;;17.10;99.90;;;;;;5014139;28;20198;-59
2021/09/13 05:55:50;;;;;;;5.73;5.07;;;17.10;99.90;;;;;;5014761;28;20733;-58
2021/09/13 05:58:16;;;;;;;4.50;4.10;;;17.10;99.90;;;;;;5014768;28;20178;-58
2021/09/13 06:00:42;;;;;;;4.53;4.10;;;17.30;99.90;;;;;;5014424;28;20172;-58
2021/09/13 06:03:08;;;;;;;5.50;4.80;;;17.40;99.90;;;;;;5014316;28;20168;-58
2021/09/13 06:05:35;;;;;;;4.30;3.90;;;17.50;99.90;;;;;;5012451;28;20843;-59
2021/09/13 06:08:01;;;;;;;4.70;4.30;;;17.60;99.90;;;;;;5004209;28;20513;-58
2021/09/13 06:10:27;;;;;;;4.10;3.80;;;17.70;99.90;;;;;;5014282;28;20411;-58
2021/09/13 06:12:53;;;;;;;4.40;4.00;;;17.80;99.90;;;;;;5001935;28;20423;-59
2021/09/13 06:15:18;;;;;;;5.50;4.40;;;17.80;99.90;;;;;;5008030;28;20265;-58
2021/09/13 06:17:44;;;;;;;4.97;4.57;;;17.80;99.90;;;;;;5033804;28;20259;-58
2021/09/13 06:20:10;;;;;;;4.40;4.00;;;17.80;99.90;;;;;;5033912;28;20167;-59
2021/09/13 06:22:36;;;;;;;4.27;3.93;;;17.80;99.90;;;;;;5033516;28;20670;-59
2021/09/13 06:25:02;;;;;;;4.70;4.40;;;17.90;99.90;;;;;;5021661;28;20431;-59
2021/09/13 06:27:28;;;;;;;7.93;5.23;;;18.00;99.90;;;;;;5014172;28;20529;-59
2021/09/13 06:29:54;;;;;;;5.17;4.70;;;18.00;99.90;;;;;;5014274;28;20416;-58
2021/09/13 06:32:19;;;;;;;5.67;5.03;;;18.10;99.90;;;;;;5011587;28;20173;-59
2021/09/13 06:34:45;;;;;;;4.90;4.23;;;18.10;99.90;;;;;;4994561;28;20188;-59
2021/09/13 06:37:11;;;;;;;4.53;4.23;;;18.20;99.90;;;;;;4994044;28;20212;-59
2021/09/13 06:39:36;;;;;;;6.33;5.73;;;18.20;99.90;;;;;;4994443;28;20196;-59
2021/09/13 06:42:03;;;;;;;5.97;5.20;;;18.30;99.90;;;;;;4994308;28;20224;-58
2021/09/13 06:44:29;;;;;;;4.97;4.57;;;18.40;99.90;;;;;;4994551;28;20172;-58
2021/09/13 06:47:09;;;;;;;5.43;4.70;;;18.50;99.90;;;;;;4993817;28;20442;-58
2021/09/13 06:49:35;;;;;;;5.67;5.20;;;18.60;99.90;;;;;;4993946;28;20435;-59
2021/09/13 06:52:03;;;;;;;8.13;5.80;;;18.70;99.90;;;;;;5007455;28;20766;-59
2021/09/13 06:54:29;;;;;;;6.03;5.53;;;18.70;99.90;;;;;;5006800;28;20434;-59
2021/09/13 06:56:58;;;;;;;6.50;5.87;;;18.80;99.90;;;;;;5012748;28;20419;-59
2021/09/13 06:59:24;;;;;;;6.77;5.90;;;18.90;99.90;;;;;;5013496;28;20180;-58
2021/09/13 07:01:51;;;;;;;5.87;5.30;;;19.00;99.90;;;;;;5013237;28;20751;-56
2021/09/13 07:04:16;;;;;;;5.90;5.40;;;19.10;99.90;;;;;;5013396;28;20411;-58
2021/09/13 07:06:42;;;;;;;7.10;6.50;;;19.10;99.90;;;;;;5013070;28;20438;-57
2021/09/13 07:09:08;;;;;;;7.40;6.70;;;19.20;99.90;;;;;;5013421;28;20200;-58
2021/09/13 07:11:33;;;;;;;7.30;6.70;;;19.20;99.90;;;;;;5013488;28;20180;-57
2021/09/13 07:13:59;;;;;;;6.87;6.07;;;19.30;99.90;;;;;;5013464;28;20245;-58
2021/09/13 07:16:25;;;;;;;7.60;6.50;;;19.40;99.90;;;;;;5013121;28;20200;-58
2021/09/13 07:18:50;;;;;;;7.53;6.83;;;19.50;99.90;;;;;;5012638;28;20544;-58
2021/09/13 07:21:16;;;;;;;9.10;8.20;;;19.50;99.90;;;;;;5012961;28;20632;-58
2021/09/13 07:23:42;;;;;;;7.77;6.97;;;19.30;99.90;;;;;;5013499;28;20675;-58
2021/09/13 07:26:08;;;;;;;9.33;8.17;;;19.40;99.90;;;;;;5013508;28;20203;-58
2021/09/13 07:28:34;;;;;;;8.10;7.27;;;19.30;99.90;;;;;;5013301;28;20454;-58
2021/09/13 07:30:59;;;;;;;10.30;7.27;;;19.30;99.90;;;;;;5013924;28;20493;-56
2021/09/13 07:33:26;;;;;;;8.80;8.03;;;19.20;99.90;;;;;;5009982;28;20176;-58
2021/09/13 07:35:52;;;;;;;9.10;8.23;;;19.20;99.90;;;;;;5013379;28;20203;-60
2021/09/13 07:38:18;;;;;;;8.83;7.10;;;19.00;99.90;;;;;;5012870;28;20410;-58
2021/09/13 07:40:43;;;;;;;9.37;8.57;;;19.20;99.90;;;;;;5013311;28;20207;-57
2021/09/13 07:43:10;;;;;;;12.30;8.83;;;19.40;99.90;;;;;;5013199;28;20863;-58
2021/09/13 07:45:37;;;;;;;10.17;8.20;;;19.60;99.90;;;;;;5020655;28;20282;-58
2021/09/13 07:48:03;;;;;;;8.63;7.80;;;19.60;99.90;;;;;;5010302;28;20465;-59
2021/09/13 07:50:28;;;;;;;8.73;7.83;;;19.70;99.90;;;;;;5012831;28;20422;-58
2021/09/13 07:52:54;;;;;;;12.10;7.80;;;19.80;99.90;;;;;;5012936;28;20792;-56
2021/09/13 07:55:19;;;;;;;10.20;8.23;;;19.90;99.90;;;;;;5011193;28;20677;-58
2021/09/13 07:57:45;;;;;;;8.00;7.27;;;19.90;99.90;;;;;;5011055;28;20254;-56
2021/09/13 08:00:11;;;;;;;9.57;6.60;;;20.00;99.90;;;;;;5012747;28;20195;-56
2021/09/13 08:02:37;;;;;;;8.37;7.10;;;19.90;99.90;;;;;;5000459;28;20184;-64
2021/09/13 08:05:02;;;;;;;8.90;7.60;;;20.00;99.90;;;;;;5010640;28;20720;-57
2021/09/13 08:07:28;;;;;;;8.03;6.67;;;20.10;99.90;;;;;;5001946;28;20716;-57
2021/09/13 08:09:54;;;;;;;6.90;6.30;;;20.10;99.90;;;;;;4997755;28;21838;-57
2021/09/13 08:12:19;;;;;;;6.57;5.97;;;20.20;99.90;;;;;;5008073;28;20271;-58
2021/09/13 08:14:45;;;;;;;7.43;6.57;;;20.30;99.90;;;;;;5016530;28;20242;-58
2021/09/13 08:17:10;;;;;;;8.97;6.93;;;20.40;99.90;;;;;;5017428;28;20259;-58
2021/09/13 08:19:40;;;;;;;13.03;7.33;;;20.50;99.90;;;;;;5007073;28;20234;-58
2021/09/13 08:22:07;;;;;;;8.70;7.37;;;20.50;99.90;;;;;;5015042;28;20423;-57
2021/09/13 08:24:34;;;;;;;7.03;6.20;;;20.60;99.90;;;;;;5015853;28;20907;-58
2021/09/13 08:26:59;;;;;;;9.83;6.13;;;20.70;99.90;;;;;;5016333;28;20429;-54
2021/09/13 08:29:25;;;;;;;9.03;7.07;;;20.60;99.90;;;;;;5016132;28;20796;-58
2021/09/13 08:31:52;;;;;;;10.67;6.30;;;20.80;99.90;;;;;;5016167;28;20703;-58
2021/09/13 08:34:19;;;;;;;9.83;6.13;;;20.90;99.90;;;;;;5016577;28;20200;-59
2021/09/13 08:36:45;;;;;;;6.93;5.10;;;21.00;99.90;;;;;;5015855;28;20489;-59
2021/09/13 08:39:11;;;;;;;8.70;5.77;;;20.70;99.90;;;;;;5012039;28;20473;-58
2021/09/13 08:41:37;;;;;;;7.97;5.80;;;20.70;99.90;;;;;;5012346;28;20466;-58
2021/09/13 08:44:03;;;;;;;5.50;4.87;;;20.90;99.90;;;;;;5014058;28;20188;-58
2021/09/13 08:47:06;;;;;;;9.20;5.80;;;21.20;99.90;;;;;;5023740;28;20501;-58
2021/09/13 08:49:33;;;;;;;6.87;5.53;;;21.10;99.90;;;;;;5013622;28;20545;-59
2021/09/13 08:51:59;;;;;;;5.87;5.10;;;21.30;99.90;;;;;;5016061;28;20387;-59
2021/09/13 08:54:28;;;;;;;7.50;5.50;;;21.50;99.90;;;;;;5016099;28;20922;-58
2021/09/13 08:56:59;;;;;;;6.03;4.87;;;21.70;99.90;;;;;;5016300;28;20226;-58
2021/09/13 08:59:26;;;;;;;6.53;5.87;;;21.80;99.90;;;;;;5011234;28;20422;-59
2021/09/13 09:01:54;;;;;;;9.87;5.33;;;21.90;99.90;;;;;;5002171;28;20840;-57
2021/09/13 09:04:20;;;;;;;5.43;4.80;;;21.80;99.90;;;;;;4997579;28;20764;-59
2021/09/13 09:06:47;;;;;;;4.97;4.47;;;22.10;99.90;;;;;;5015364;28;20431;-58
2021/09/13 09:09:15;;;;;;;9.30;4.83;;;22.00;99.90;;;;;;5015455;28;20459;-59
2021/09/13 09:12:09;;;;;;;5.53;5.00;;;22.10;99.90;;;;;;5015131;28;20465;-58
2021/09/13 09:14:43;;;;;;;4.97;4.47;;;22.20;99.90;;;;;;5012905;28;20483;-58
2021/09/13 09:17:19;;;;;;;5.43;4.63;;;22.20;99.90;;;;;;5043883;22;20500;-61
2021/09/13 09:19:44;;;;;;;4.50;4.10;;;22.20;99.90;;;;;;5033048;28;20441;-60
2021/09/13 09:22:27;;;;;;;3.80;3.50;;;22.30;99.90;;;;;;5034041;28;20417;-59
2021/09/13 09:24:55;;;;;;;7.50;6.03;;;22.40;99.90;;;;;;5034140;28;20241;-62
2021/09/13 09:27:22;;;;;;;4.30;3.87;;;22.60;99.90;;;;;;5034443;28;20516;-61
2021/09/13 09:29:48;;;;;;;4.70;4.30;;;22.60;99.90;;;;;;5034700;28;20454;-60
2021/09/13 09:32:33;;;;;;;5.10;4.60;;;22.90;99.90;;;;;;5034520;28;21026;-60
2021/09/13 09:35:14;;;;;;;4.93;4.37;;;22.90;99.90;;;;;;5034323;28;20200;-60
2021/09/13 09:37:42;;;;;;;5.67;5.07;;;22.80;99.90;;;;;;5034242;28;20548;-61
2021/09/13 09:40:09;;;;;;;5.33;4.83;;;22.70;99.90;;;;;;5016791;28;20421;-61
2021/09/13 09:42:38;;;;;;;5.53;4.90;;;22.80;99.90;;;;;;5034457;28;20409;-61
2021/09/13 09:45:23;;;;;;;5.07;4.63;;;23.00;99.90;;;;;;5034335;28;20397;-61
2021/09/13 09:48:09;;;;;;;5.10;4.67;;;23.10;99.90;;;;;;5034057;28;20441;-61
2021/09/13 09:50:34;;;;;;;5.90;4.30;;;23.20;99.90;;;;;;5034590;28;20774;-61
2021/09/13 09:53:17;;;;;;;4.07;3.53;;;23.00;99.90;;;;;;5033869;28;20406;-61
2021/09/13 09:55:49;;;;;;;4.47;4.07;;;23.20;99.90;;;;;;5016507;28;20237;-61
2021/09/13 09:58:14;;;;;;;4.90;4.37;;;23.40;99.90;;;;;;5034589;28;20898;-61
2021/09/13 10:00:43;;;;;;;4.13;3.73;;;23.60;99.90;;;;;;5034361;28;20406;-62
2021/09/13 10:03:08;;;;;;;4.70;3.67;;;23.80;99.90;;;;;;5034805;28;20166;-60
2021/09/13 10:05:35;;;;;;;6.70;4.47;;;23.90;99.90;;;;;;5032823;28;20430;-62
2021/09/13 10:08:01;;;;;;;5.40;4.90;;;24.00;99.90;;;;;;5032980;28;20567;-61
2021/09/13 10:10:29;;;;;;;4.70;4.30;;;23.90;99.90;;;;;;5033304;28;20437;-62
2021/09/13 10:13:00;;;;;;;5.00;3.80;;;24.00;99.90;;;;;;5032852;28;20440;-61
2021/09/13 10:15:26;;;;;;;5.13;4.20;;;24.10;99.90;;;;;;5033993;28;20383;-62
2021/09/13 10:17:52;;;;;;;4.03;3.60;;;24.20;99.90;;;;;;5014074;28;20490;-61
2021/09/13 10:20:21;;;;;;;3.60;3.37;;;24.30;99.90;;;;;;5014164;28;20403;-60
2021/09/13 10:22:50;;;;;;;4.30;3.90;;;24.50;99.90;;;;;;5013797;28;20414;-60
2021/09/13 10:25:17;;;;;;;4.60;4.20;;;24.40;99.90;;;;;;5014035;28;20486;-60
2021/09/13 10:27:46;;;;;;;5.00;4.07;;;24.50;99.90;;;;;;4995801;28;20461;-61
2021/09/13 10:30:21;;;;;;;4.30;4.00;;;24.50;99.90;;;;;;5013817;28;20490;-60
2021/09/13 10:32:51;;;;;;;4.50;4.10;;;24.60;99.90;;;;;;5014016;28;20474;-60
2021/09/13 10:35:39;;;;;;;5.87;4.53;;;24.40;99.90;;;;;;5014399;28;20475;-61
2021/09/13 10:38:04;;;;;;;5.60;5.07;;;24.10;99.90;;;;;;5013528;28;20829;-61
2021/09/13 10:40:38;;;;;;;5.17;4.67;;;24.20;99.90;;;;;;5016263;28;20406;-61
2021/09/13 10:43:20;;;;;;;4.00;3.70;;;24.50;99.90;;;;;;5014160;28;20623;-61
2021/09/13 10:45:45;;;;;;;4.90;4.50;;;24.90;99.90;;;;;;5016022;28;20836;-59
2021/09/13 10:48:18;;;;;;;5.00;4.17;;;25.20;99.90;;;;;;5033238;28;20452;-61
2021/09/13 10:50:51;;;;;;;4.30;3.90;;;25.80;99.90;;;;;;5033648;28;20159;-58
2021/09/13 10:53:16;;;;;;;5.10;4.57;;;27.00;99.90;;;;;;5033182;28;20386;-59
2021/09/13 10:55:44;;;;;;;5.37;4.87;;;27.80;99.90;;;;;;5033768;28;20467;-60
2021/09/13 10:58:16;;;;;;;5.07;4.67;;;27.80;99.30;;;;;;5033413;28;20174;-58
2021/09/13 11:00:45;;;;;;;4.23;3.90;;;28.00;98.80;;;;;;5033356;28;20532;-59
2021/09/13 11:03:23;;;;;;;3.33;3.13;;;28.10;99.20;;;;;;5033179;28;20913;-59
2021/09/13 11:08:52;;;;;;;4.10;3.70;;;31.10;95.80;;;;;;5033182;28;20935;-61
2021/09/13 11:11:19;;;;;;;3.50;3.30;;;32.60;92.00;;;;;;5032997;28;20409;-61
2021/09/13 11:13:47;;;;;;;3.60;3.30;;;31.70;91.90;;;;;;5033173;28;20398;-59
2021/09/13 11:16:17;;;;;;;4.70;4.30;;;29.90;94.10;;;;;;5032479;28;20446;-59
2021/09/13 11:18:44;;;;;;;5.47;4.10;;;28.90;94.80;;;;;;5033258;28;20402;-56
2021/09/13 11:21:21;;;;;;;3.73;3.43;;;27.90;95.90;;;;;;5032995;28;20834;-60
2021/09/13 11:23:52;;;;;;;4.30;3.90;;;27.90;97.20;;;;;;5032765;28;20408;-60
2021/09/13 11:26:35;;;;;;;4.13;3.83;;;27.60;96.90;;;;;;5032887;28;20426;-61
2021/09/13 11:29:08;;;;;;;3.53;3.23;;;26.90;97.90;;;;;;5033158;28;20478;-60
2021/09/13 11:31:38;;;;;;;4.10;3.80;;;27.10;98.10;;;;;;5032885;28;20765;-59
2021/09/13 11:34:17;;;;;;;5.80;4.33;;;28.80;96.50;;;;;;5033062;28;20464;-61
2021/09/13 11:36:57;;;;;;;4.43;3.47;;;30.70;93.00;;;;;;5032763;28;20893;-61
2021/09/13 11:39:26;;;;;;;3.37;2.73;;;33.00;90.80;;;;;;5033906;28;20757;-61
2021/09/13 11:41:59;;;;;;;3.70;3.40;;;33.70;88.70;;;;;;5036680;28;20405;-61
2021/09/13 11:44:24;;;;;;;3.70;3.40;;;34.70;82.10;;;;;;5037250;28;20447;-60
2021/09/13 11:46:57;;;;;;;4.40;4.10;;;33.50;83.70;;;;;;5036427;28;20433;-60
2021/09/13 11:49:26;;;;;;;3.73;3.43;;;32.70;85.90;;;;;;5036717;28;20235;-60
2021/09/13 11:52:23;;;;;;;3.40;3.20;;;33.00;84.00;;;;;;5036026;28;20409;-60
2021/09/13 11:55:04;;;;;;;3.57;3.27;;;34.40;80.00;;;;;;5020772;28;20406;-61
2021/09/13 11:57:31;;;;;;;3.10;2.90;;;35.30;76.20;;;;;;5036628;28;20421;-61
2021/09/13 12:00:00;;;;;;;5.17;3.80;;;33.50;76.90;;;;;;5036527;28;20753;-62
2021/09/13 12:02:26;;;;;;;3.83;3.53;;;31.80;81.80;;;;;;5036426;28;20414;-61
2021/09/13 12:04:53;;;;;;;6.00;5.50;;;31.00;83.80;;;;;;5036467;28;20887;-61
2021/09/13 12:07:19;;;;;;;4.00;3.60;;;31.10;87.90;;;;;;5036413;28;20418;-60
2021/09/13 12:09:51;;;;;;;3.50;3.20;;;30.20;85.90;;;;;;5029848;28;20584;-62
2021/09/13 12:12:21;;;;;;;5.10;3.57;;;29.80;88.80;;;;;;5016917;28;20387;-61
2021/09/13 12:14:48;;;;;;;4.03;3.73;;;29.50;87.70;;;;;;5004209;28;20406;-62
2021/09/13 12:17:20;;;;;;;3.63;3.30;;;29.20;90.10;;;;;;5030376;28;20465;-62
2021/09/13 12:20:10;;;;;;;3.27;3.07;;;29.00;90.00;;;;;;5036109;28;20410;-61
2021/09/13 12:22:36;;;;;;;4.63;3.50;;;29.50;91.30;;;;;;5036035;28;20382;-61
2021/09/13 12:25:09;;;;;;;3.53;3.23;;;30.40;88.10;;;;;;5036165;28;20493;-61
2021/09/13 12:27:50;;;;;;;3.50;3.00;;;29.20;86.80;;;;;;5035963;28;20476;-61
2021/09/13 12:30:26;;;;;;;3.60;3.03;;;28.90;88.80;;;;;;5036155;28;20444;-62
2021/09/13 12:32:59;;;;;;;7.07;3.37;;;29.30;86.70;;;;;;5035691;28;20947;-62
2021/09/13 12:35:39;;;;;;;4.80;3.10;;;29.30;87.30;;;;;;5035965;28;20401;-62
2021/09/13 12:38:11;;;;;;;3.63;3.30;;;29.00;88.40;;;;;;5035701;28;20405;-61
2021/09/13 12:41:00;;;;;;;3.83;3.53;;;30.20;85.40;;;;;;5036524;28;20775;-62
2021/09/13 12:43:32;;;;;;;3.60;3.20;;;31.50;84.00;;;;;;5036096;28;20482;-62
2021/09/13 12:46:13;;;;;;;5.00;2.97;;;32.50;80.10;;;;;;5035690;28;20457;-61
2021/09/13 12:48:41;;;;;;;3.37;3.17;;;32.90;78.20;;;;;;5026865;28;20496;-60
2021/09/13 12:51:14;;;;;;;5.37;3.73;;;33.20;78.40;;;;;;5015077;28;20407;-61
2021/09/13 12:53:57;;;;;;;3.50;3.23;;;33.10;78.40;;;;;;5016561;28;20453;-61
2021/09/13 12:56:23;;;;;;;3.40;2.67;;;31.90;81.30;;;;;;5027737;28;20454;-62